Terminal Aerodrome Forecast
Issued by NWS

Home | Current Version | Previous Version | Text Only | Print | Product List | Glossary On
Versions: 1 2 3 4 5 6 7 8 9 10 11 12 13 14 15
000
FTUS46 KMTR 240524
TAFMRY
TAF
KMRY 240524Z 2406/2506 VRB04KT P6SM SCT080 BKN100
     FM241100 14005KT P6SM VCSH BKN050 OVC080
     FM241600 17006KT P6SM -SHRA BKN050
     FM242200 18012G20KT 6SM -RA OVC040
     FM250300 20009KT P6SM VCSH OVC030=

USA.gov is the U.S. government's official web portal to all federal, state and local government web resources and services.